Time;durP1;ratioP1;P1;durP2;ratioP2;P2;SDS_P1;SDS_P2;PMS_P1;PMS_P2;Temp;Humidity;BMP_temperature;BMP_pressure;BME280_temperature;BME280_humidity;BME280_pressure;Samples;Min_cycle;Max_cycle;Signal;HPM_P1;HPM_P2
2023/08/29 00:01:02;;;;;;;2.20;1.35;;;;;;;19.40;100.00;98008.88;5119546;28;20134;-61
2023/08/29 00:03:28;;;;;;;5.50;1.70;;;;;;;19.66;100.00;98011.50;5119120;28;20043;-61
2023/08/29 00:06:00;;;;;;;3.15;1.42;;;;;;;19.63;100.00;98017.97;5119516;28;20313;-61
2023/08/29 00:08:26;;;;;;;2.97;1.33;;;;;;;19.47;100.00;98063.41;5118945;28;20047;-62
2023/08/29 00:10:55;;;;;;;2.20;1.70;;;;;;;19.38;100.00;98099.47;5119478;28;20061;-63
2023/08/29 00:13:21;;;;;;;3.70;1.98;;;;;;;19.38;100.00;98130.81;5119198;28;20052;-62
2023/08/29 00:15:47;;;;;;;1.45;1.35;;;;;;;19.48;100.00;98112.22;5119127;28;20363;-61
2023/08/29 00:18:13;;;;;;;2.00;1.52;;;;;;;19.02;100.00;98095.13;5118836;28;20139;-61
2023/08/29 00:20:39;;;;;;;1.65;1.40;;;;;;;19.47;100.00;98138.47;5118984;28;20047;-60
2023/08/29 00:23:05;;;;;;;2.08;1.35;;;;;;;19.52;100.00;98146.22;5119149;28;20324;-60
2023/08/29 00:25:31;;;;;;;3.28;1.58;;;;;;;19.49;100.00;98163.78;5118725;28;20393;-60
2023/08/29 00:27:57;;;;;;;2.30;1.45;;;;;;;19.27;100.00;98206.19;5119083;28;20058;-60
2023/08/29 00:30:23;;;;;;;2.00;1.65;;;;;;;19.50;100.00;98174.47;5118749;28;20048;-60
2023/08/29 00:32:49;;;;;;;2.00;1.45;;;;;;;19.34;100.00;98135.72;5119040;28;20067;-61
2023/08/29 00:35:15;;;;;;;2.28;1.70;;;;;;;19.44;100.00;98204.06;5118595;28;20116;-62
2023/08/29 00:37:41;;;;;;;2.70;1.65;;;;;;;19.38;100.00;98191.94;5118227;28;20047;-62
2023/08/29 00:40:08;;;;;;;6.65;1.70;;;;;;;19.57;100.00;98154.00;5118387;28;20057;-63
2023/08/29 00:42:34;;;;;;;2.72;1.42;;;;;;;19.38;100.00;98180.06;5118400;28;20060;-63
2023/08/29 00:45:00;;;;;;;2.17;1.60;;;;;;;19.37;100.00;98159.06;5118703;28;20083;-62
2023/08/29 00:47:27;;;;;;;5.38;1.60;;;;;;;19.11;100.00;98267.44;5118600;28;20055;-63
2023/08/29 00:49:54;;;;;;;1.63;1.23;;;;;;;19.22;100.00;98264.31;5118963;28;20146;-62
2023/08/29 00:52:20;;;;;;;4.65;1.50;;;;;;;18.97;100.00;98329.78;5118430;28;20134;-61
2023/08/29 00:54:47;;;;;;;4.05;2.15;;;;;;;19.25;100.00;98246.78;5118620;28;20397;-62
2023/08/29 00:57:13;;;;;;;2.22;1.58;;;;;;;19.20;100.00;98261.22;5118277;28;20423;-63
2023/08/29 00:59:39;;;;;;;1.48;1.38;;;;;;;19.34;100.00;98241.31;5118514;28;20047;-62
2023/08/29 01:02:05;;;;;;;1.70;1.40;;;;;;;19.34;100.00;98221.09;5118124;28;20048;-61
2023/08/29 01:04:31;;;;;;;1.90;1.60;;;;;;;19.27;100.00;98242.31;5118513;28;20439;-60
2023/08/29 01:06:57;;;;;;;5.10;1.33;;;;;;;19.15;100.00;98242.34;5117964;28;20226;-61
2023/08/29 01:09:23;;;;;;;2.85;1.80;;;;;;;19.18;100.00;98305.34;5118511;28;20064;-63
2023/08/29 01:11:57;;;;;;;1.67;1.58;;;;;;;19.23;100.00;98297.25;5117985;28;20054;-61
2023/08/29 01:14:31;;;;;;;3.90;2.27;;;;;;;19.27;100.00;98261.78;5117980;28;20409;-60
2023/08/29 01:16:59;;;;;;;;;;;;;;;19.19;100.00;98331.91;5118880;28;20062;-62
2023/08/29 01:19:27;;;;;;;2.28;1.30;;;;;;;19.30;100.00;98271.22;5118005;28;20030;-63
2023/08/29 01:25:00;;;;;;;2.78;1.48;;;;;;;18.76;100.00;98492.22;5118142;28;20508;-62
2023/08/29 01:27:28;;;;;;;3.40;1.60;;;;;;;18.75;100.00;98595.38;5118156;28;20201;-63
2023/08/29 01:29:57;;;;;;;1.70;1.60;;;;;;;18.57;100.00;98512.50;5117953;28;20134;-63
2023/08/29 01:32:25;;;;;;;3.28;1.55;;;;;;;18.52;100.00;98640.69;5117884;28;20138;-60
2023/08/29 01:34:52;;;;;;;3.58;1.67;;;;;;;18.27;100.00;98697.53;5117952;28;20058;-60
2023/08/29 01:37:17;;;;;;;2.05;1.50;;;;;;;18.49;100.00;98713.72;5117593;28;20097;-62
2023/08/29 01:39:43;;;;;;;3.67;1.40;;;;;;;18.55;100.00;98604.53;5117557;28;20051;-62
2023/08/29 01:42:09;;;;;;;3.47;1.60;;;;;;;18.30;100.00;98720.88;5117678;28;20138;-63
2023/08/29 01:44:36;;;;;;;7.00;1.88;;;;;;;18.06;100.00;98745.09;5117746;28;20155;-64
2023/08/29 01:47:02;;;;;;;2.78;1.67;;;;;;;18.26;100.00;98748.69;5117561;28;20197;-63
2023/08/29 01:49:30;;;;;;;2.17;1.60;;;;;;;18.39;100.00;98711.97;5116617;28;20409;-63
2023/08/29 01:51:56;;;;;;;3.40;2.05;;;;;;;18.31;100.00;98683.59;5117329;28;20128;-62
2023/08/29 01:54:22;;;;;;;1.70;1.58;;;;;;;18.36;100.00;98666.44;5117792;28;20424;-62
2023/08/29 01:56:49;;;;;;;3.00;1.85;;;;;;;18.13;100.00;98683.97;5117162;28;20063;-63
2023/08/29 01:59:15;;;;;;;2.38;1.70;;;;;;;18.23;100.00;98635.00;5117276;28;20148;-62
2023/08/29 02:01:42;;;;;;;3.03;1.83;;;;;;;17.93;100.00;98717.25;5117472;28;20055;-61
2023/08/29 02:04:08;;;;;;;3.65;1.60;;;;;;;18.38;100.00;98661.22;5117129;28;20089;-62
2023/08/29 02:06:33;;;;;;;4.65;1.67;;;;;;;18.00;100.00;98653.31;5117445;28;20090;-61
2023/08/29 02:08:59;;;;;;;1.98;1.83;;;;;;;18.15;100.00;98644.69;5117180;28;20380;-61
2023/08/29 02:11:25;;;;;;;1.73;1.63;;;;;;;17.71;100.00;98774.25;5117476;28;20090;-61
2023/08/29 02:13:51;;;;;;;3.78;2.03;;;;;;;17.90;100.00;98850.41;5116976;28;20442;-60
2023/08/29 02:16:17;;;;;;;1.70;1.60;;;;;;;17.82;100.00;98783.19;5117244;28;20047;-60
2023/08/29 02:18:43;;;;;;;1.90;1.80;;;;;;;17.78;100.00;98835.94;5116974;28;20044;-61
2023/08/29 02:21:09;;;;;;;3.05;2.15;;;;;;;17.67;100.00;98846.38;5117372;28;20130;-61
2023/08/29 02:23:35;;;;;;;2.45;2.00;;;;;;;17.56;100.00;98906.72;5117041;28;20404;-61
2023/08/29 02:26:02;;;;;;;2.92;1.95;;;;;;;17.74;100.00;98865.69;5117546;28;20090;-61
2023/08/29 02:28:28;;;;;;;3.15;2.20;;;;;;;17.59;100.00;98880.94;5117058;28;20176;-63
2023/08/29 02:30:54;;;;;;;6.20;2.20;;;;;;;17.63;100.00;98945.47;5116989;28;20073;-61
2023/08/29 02:33:21;;;;;;;4.50;1.90;;;;;;;17.64;100.00;98936.72;5117107;28;20184;-61
2023/08/29 02:35:47;;;;;;;3.35;2.00;;;;;;;17.66;100.00;98930.75;5116664;28;20406;-61
2023/08/29 02:38:13;;;;;;;2.08;1.85;;;;;;;17.90;100.00;98886.47;5116733;28;20402;-60
2023/08/29 02:40:39;;;;;;;3.95;1.77;;;;;;;17.83;100.00;98868.72;5116730;28;20058;-63
2023/08/29 02:43:05;;;;;;;2.17;1.98;;;;;;;17.60;100.00;98899.94;5117040;28;20052;-63
2023/08/29 02:45:31;;;;;;;2.60;2.00;;;;;;;17.15;100.00;98961.09;5116488;28;20052;-63
2023/08/29 02:47:57;;;;;;;2.95;2.33;;;;;;;17.57;100.00;98985.94;5117007;28;20087;-63
2023/08/29 02:50:23;;;;;;;2.00;1.80;;;;;;;17.75;100.00;98921.91;5116553;28;20098;-63
2023/08/29 02:52:49;;;;;;;2.53;2.03;;;;;;;17.53;100.00;98910.38;5116984;28;20047;-62
2023/08/29 02:55:15;;;;;;;4.07;1.60;;;;;;;17.44;100.00;98982.91;5116351;28;20051;-64
2023/08/29 02:57:41;;;;;;;2.30;2.10;;;;;;;17.45;100.00;99014.97;5116844;28;20043;-63
2023/08/29 03:00:10;;;;;;;5.47;2.10;;;;;;;17.32;100.00;99003.63;5117577;28;20051;-62
2023/08/29 03:02:36;;;;;;;6.97;2.40;;;;;;;17.36;100.00;99007.16;5120034;28;20056;-63
2023/08/29 03:05:03;;;;;;;3.72;1.77;;;;;;;17.36;100.00;99015.47;5120348;28;20427;-61
2023/08/29 03:07:29;;;;;;;4.43;2.30;;;;;;;17.31;100.00;99021.47;5120050;28;20065;-61
2023/08/29 03:09:56;;;;;;;2.78;1.95;;;;;;;17.22;100.00;99039.78;5120329;28;20370;-63
2023/08/29 03:12:22;;;;;;;2.80;2.22;;;;;;;17.34;100.00;99034.50;5119843;28;20149;-61
2023/08/29 03:14:53;;;;;;;3.25;2.10;;;;;;;17.18;100.00;99059.22;5120187;28;20081;-63
2023/08/29 03:17:20;;;;;;;2.28;1.98;;;;;;;17.37;100.00;99058.63;5119738;28;20051;-63
2023/08/29 03:19:47;;;;;;;4.78;2.03;;;;;;;17.26;100.00;99085.66;5120282;28;20308;-61
2023/08/29 03:22:13;;;;;;;3.45;2.00;;;;;;;17.07;100.00;99102.88;5119676;28;20090;-60
2023/08/29 03:24:39;;;;;;;2.80;1.92;;;;;;;17.24;100.00;99128.81;5119859;28;20356;-63
2023/08/29 03:27:06;;;;;;;3.47;1.83;;;;;;;17.00;100.00;99100.94;5119929;28;20043;-60
2023/08/29 03:29:33;;;;;;;3.15;2.03;;;;;;;17.05;100.00;99105.25;5119771;28;20052;-63
2023/08/29 03:31:58;;;;;;;2.47;2.28;;;;;;;16.92;100.00;99149.25;5119746;28;20397;-60
2023/08/29 03:34:24;;;;;;;4.80;2.25;;;;;;;17.00;100.00;99158.31;5119673;28;20147;-60
2023/08/29 03:36:50;;;;;;;4.13;2.38;;;;;;;16.72;100.00;99162.81;5119817;28;20047;-61
2023/08/29 03:39:16;;;;;;;2.38;1.95;;;;;;;17.13;100.00;99165.72;5119574;28;20052;-61
2023/08/29 03:41:42;;;;;;;3.38;2.30;;;;;;;17.15;100.00;99140.38;5119890;28;20152;-62
2023/08/29 03:44:09;;;;;;;2.22;1.88;;;;;;;17.25;100.00;99122.84;5119447;28;20130;-63
2023/08/29 03:46:34;;;;;;;3.63;2.20;;;;;;;17.31;100.00;99121.22;5119762;28;20424;-62
2023/08/29 03:49:00;;;;;;;2.00;1.90;;;;;;;17.45;100.00;99081.47;5119261;28;20047;-63
2023/08/29 03:51:26;;;;;;;3.28;1.90;;;;;;;17.38;100.00;99093.44;5119744;28;20079;-63
2023/08/29 03:53:52;;;;;;;2.88;1.83;;;;;;;17.48;100.00;99063.25;5119526;28;20120;-64
2023/08/29 03:56:18;;;;;;;4.05;2.33;;;;;;;17.58;100.00;99042.94;5119250;28;20047;-63
2023/08/29 03:58:45;;;;;;;2.75;2.15;;;;;;;17.45;100.00;99036.34;5119482;28;20051;-61
2023/08/29 04:01:12;;;;;;;10.50;2.05;;;;;;;17.52;100.00;99025.97;5119139;28;20063;-62
2023/08/29 04:03:38;;;;;;;5.07;2.13;;;;;;;17.65;100.00;99018.66;5119339;28;20047;-61
2023/08/29 04:06:04;;;;;;;3.80;1.83;;;;;;;17.56;100.00;99043.34;5119005;28;20417;-63
2023/08/29 04:08:30;;;;;;;3.47;2.20;;;;;;;17.55;100.00;99033.44;5119331;28;20116;-61
2023/08/29 04:10:56;;;;;;;3.78;2.75;;;;;;;17.84;100.00;99003.38;5118843;28;20071;-60
2023/08/29 04:13:22;;;;;;;2.38;2.17;;;;;;;17.72;100.00;98990.06;5118779;28;20047;-60
2023/08/29 04:15:48;;;;;;;5.10;2.15;;;;;;;18.23;100.00;98868.84;5119091;28;20071;-62
2023/08/29 04:18:16;;;;;;;5.00;2.80;;;;;;;18.34;100.00;98882.53;5119271;28;20107;-62
2023/08/29 04:20:43;;;;;;;2.20;1.98;;;;;;;18.43;100.00;98646.06;5119041;28;20134;-62
2023/08/29 04:23:10;;;;;;;6.65;2.30;;;;;;;18.48;100.00;98604.69;5118872;28;20325;-63
2023/08/29 04:25:36;;;;;;;2.13;1.60;;;;;;;18.84;100.00;98369.84;5118700;28;20417;-62
2023/08/29 04:28:03;;;;;;;2.83;1.98;;;;;;;18.96;100.00;98344.09;5118939;28;20105;-61
2023/08/29 04:30:29;;;;;;;8.30;2.00;;;;;;;18.85;100.00;98269.41;5118943;28;20044;-63
2023/08/29 04:32:55;;;;;;;1.73;1.63;;;;;;;19.10;100.00;98218.66;5118821;28;20405;-61
2023/08/29 04:35:21;;;;;;;2.03;1.70;;;;;;;19.40;100.00;98194.28;5118955;28;20134;-63
2023/08/29 04:37:48;;;;;;;2.42;1.60;;;;;;;19.38;100.00;97968.84;5118456;28;20340;-62
2023/08/29 04:40:18;;;;;;;2.17;1.98;;;;;;;19.93;100.00;97886.53;5118839;28;20439;-61
2023/08/29 04:42:44;;;;;;;2.22;1.60;;;;;;;19.70;100.00;97815.53;5118457;28;20134;-61
2023/08/29 04:45:11;;;;;;;3.33;1.80;;;;;;;19.93;100.00;97800.31;5118881;28;20047;-61
2023/08/29 04:47:38;;;;;;;1.60;1.50;;;;;;;19.98;100.00;97787.78;5116057;28;20078;-62
2023/08/29 04:50:05;;;;;;;1.73;1.60;;;;;;;20.07;100.00;97785.00;5118167;28;20374;-61
2023/08/29 04:52:32;;;;;;;4.63;1.50;;;;;;;20.30;100.00;97741.13;5116368;28;20135;-61
2023/08/29 04:54:58;;;;;;;1.88;1.60;;;;;;;19.32;100.00;97756.69;5118290;28;20055;-61
2023/08/29 04:57:24;;;;;;;3.00;1.55;;;;;;;20.28;100.00;97735.25;5118120;28;20047;-56
2023/08/29 04:59:50;;;;;;;2.15;1.58;;;;;;;20.83;100.00;97735.94;5118199;28;20047;-56
2023/08/29 05:02:16;;;;;;;1.60;1.50;;;;;;;21.24;100.00;97799.75;5118220;28;20139;-62
2023/08/29 05:04:43;;;;;;;1.95;1.48;;;;;;;21.89;100.00;97875.53;5117995;28;20056;-64
2023/08/29 05:07:09;;;;;;;1.70;1.60;;;;;;;22.40;100.00;97997.53;5118289;28;20066;-62
2023/08/29 05:09:35;;;;;;;2.08;1.88;;;;;;;22.51;100.00;98071.13;5119115;28;20353;-66
2023/08/29 05:12:02;;;;;;;2.28;1.70;;;;;;;22.12;100.00;98092.50;5118542;28;20142;-61
2023/08/29 05:14:28;;;;;;;1.50;1.40;;;;;;;21.05;100.00;97936.31;5117877;28;20148;-63
2023/08/29 05:16:54;;;;;;;3.60;1.77;;;;;;;20.82;100.00;97845.03;5118426;28;20104;-60
2023/08/29 05:19:20;;;;;;;1.90;1.73;;;;;;;21.69;100.00;97888.03;5117700;28;20048;-59
2023/08/29 05:21:46;;;;;;;2.00;1.75;;;;;;;21.73;100.00;97854.41;5117902;28;20118;-58
2023/08/29 05:24:12;;;;;;;4.35;1.35;;;;;;;22.42;100.00;97983.84;5117613;28;20052;-61
2023/08/29 05:26:39;;;;;;;5.30;1.88;;;;;;;21.14;100.00;97907.69;5117758;28;20063;-62
2023/08/29 05:29:05;;;;;;;2.67;1.65;;;;;;;21.95;100.00;97887.59;5117736;28;20415;-60
2023/08/29 05:31:31;;;;;;;1.60;1.40;;;;;;;21.55;100.00;97869.19;5117683;28;20047;-60
2023/08/29 05:33:57;;;;;;;1.80;1.70;;;;;;;22.20;100.00;97878.81;5117469;28;20138;-62
2023/08/29 05:36:23;;;;;;;6.50;2.30;;;;;;;21.64;100.00;97941.66;5117312;28;20107;-60
2023/08/29 05:38:48;;;;;;;4.57;2.08;;;;;;;22.66;100.00;97936.38;5117509;28;20048;-63
2023/08/29 05:41:14;;;;;;;4.70;1.73;;;;;;;23.06;100.00;98042.16;5117306;28;20143;-64
2023/08/29 05:43:41;;;;;;;7.72;1.73;;;;;;;23.08;100.00;98062.00;5117743;28;20047;-61
2023/08/29 05:46:07;;;;;;;1.65;1.52;;;;;;;23.66;100.00;98172.53;5117126;28;20047;-58
2023/08/29 05:48:33;;;;;;;1.80;1.33;;;;;;;22.59;100.00;98126.66;5117719;28;20538;-59
2023/08/29 05:50:59;;;;;;;2.10;1.75;;;;;;;23.90;100.00;98138.94;5117260;28;20134;-56
2023/08/29 05:53:25;;;;;;;2.00;1.40;;;;;;;23.34;100.00;98156.59;5117440;28;20181;-58
2023/08/29 05:55:51;;;;;;;3.28;1.63;;;;;;;22.65;100.00;98080.84;5117238;28;20138;-63
2023/08/29 05:58:18;;;;;;;3.53;1.50;;;;;;;22.69;100.00;98059.13;5117207;28;20059;-59
2023/08/29 06:00:45;;;;;;;1.95;1.30;;;;;;;23.32;100.00;98064.78;5117286;28;20413;-63
2023/08/29 06:03:11;;;;;;;2.35;1.55;;;;;;;23.07;100.00;98084.84;5117200;28;20134;-62
2023/08/29 06:05:38;;;;;;;2.70;1.45;;;;;;;23.35;100.00;98114.16;5117257;28;20051;-61
2023/08/29 06:08:06;;;;;;;2.05;1.33;;;;;;;24.38;100.00;98180.78;5117061;28;20066;-64
2023/08/29 06:10:32;;;;;;;3.20;1.35;;;;;;;23.94;100.00;98215.09;5117411;28;20062;-60
2023/08/29 06:12:58;;;;;;;2.25;1.60;;;;;;;23.16;100.00;98140.72;5116990;28;20130;-54
2023/08/29 06:15:24;;;;;;;1.95;1.50;;;;;;;23.41;100.00;98170.22;5117407;28;20071;-57
2023/08/29 06:17:50;;;;;;;2.00;1.50;;;;;;;24.05;100.00;98194.16;5116769;28;20047;-65
2023/08/29 06:20:17;;;;;;;1.90;1.20;;;;;;;23.25;100.00;98205.72;5117045;28;20069;-61
2023/08/29 06:22:43;;;;;;;1.42;1.33;;;;;;;23.66;100.00;98143.78;5117112;28;20105;-62
2023/08/29 06:25:09;;;;;;;2.25;1.80;;;;;;;23.24;100.00;98111.13;5116734;28;20047;-59
2023/08/29 06:27:36;;;;;;;2.63;1.33;;;;;;;22.12;100.00;98008.75;5117081;28;20047;-61
2023/08/29 06:30:02;;;;;;;2.75;1.35;;;;;;;21.60;100.00;97915.97;5116691;28;20058;-58
2023/08/29 06:32:29;;;;;;;5.20;1.80;;;;;;;21.28;100.00;97831.75;5117084;28;20136;-56
2023/08/29 06:34:56;;;;;;;2.47;1.40;;;;;;;21.40;100.00;97860.72;5127023;27;20058;-62
2023/08/29 06:37:22;;;;;;;1.65;1.55;;;;;;;20.87;100.00;97817.31;5137349;28;20290;-66
2023/08/29 06:39:48;;;;;;;2.33;1.27;;;;;;;20.95;100.00;97787.13;5137065;28;20051;-61
2023/08/29 06:42:13;;;;;;;1.73;1.55;;;;;;;20.94;100.00;97779.25;5137409;28;20051;-65
2023/08/29 06:44:39;;;;;;;2.45;1.38;;;;;;;21.06;100.00;97753.97;5136959;28;20051;-65
2023/08/29 06:47:05;;;;;;;5.07;1.73;;;;;;;20.66;100.00;97715.28;5137421;28;20142;-64
2023/08/29 06:49:33;;;;;;;4.20;1.30;;;;;;;20.91;100.00;97728.03;5136989;28;20077;-63
2023/08/29 06:52:00;;;;;;;2.85;1.55;;;;;;;21.03;100.00;97795.94;5136908;28;20155;-59
2023/08/29 06:54:26;;;;;;;4.15;1.75;;;;;;;21.23;100.00;97826.06;5137034;28;20410;-61
2023/08/29 06:56:52;;;;;;;1.55;1.40;;;;;;;20.85;100.00;97819.03;5136701;28;20406;-63
2023/08/29 06:59:17;;;;;;;2.42;1.52;;;;;;;21.36;100.00;97846.97;5136927;28;20043;-64
2023/08/29 07:01:43;;;;;;;3.38;1.45;;;;;;;21.44;100.00;97891.22;5136777;28;20089;-68
2023/08/29 07:04:10;;;;;;;1.65;1.50;;;;;;;21.58;100.00;97894.13;5136867;28;20078;-68
2023/08/29 07:06:36;;;;;;;5.38;1.33;;;;;;;21.48;100.00;97852.78;5136335;28;20397;-65
2023/08/29 07:09:03;;;;;;;1.70;1.60;;;;;;;21.10;100.00;97818.66;5136753;28;20099;-62
2023/08/29 07:11:29;;;;;;;1.67;1.33;;;;;;;21.51;100.00;97810.03;5136641;28;20051;-64
2023/08/29 07:13:55;;;;;;;2.03;1.63;;;;;;;21.82;100.00;97845.97;5136905;28;20047;-60
2023/08/29 07:16:21;;;;;;;2.78;1.50;;;;;;;21.35;100.00;97859.34;5137123;28;20349;-57
2023/08/29 07:18:47;;;;;;;5.68;1.65;;;;;;;21.58;100.00;97806.91;5136382;28;20435;-58
2023/08/29 07:21:13;;;;;;;1.50;1.40;;;;;;;21.80;100.00;97840.88;5136786;28;20142;-60
2023/08/29 07:23:39;;;;;;;4.65;1.27;;;;;;;21.64;100.00;97899.06;5136706;28;20146;-66
2023/08/29 07:26:06;;;;;;;3.15;1.27;;;;;;;22.34;100.00;97896.09;5136765;28;20042;-64
2023/08/29 07:28:32;;;;;;;3.47;1.50;;;;;;;22.51;100.00;97961.47;5136332;28;20389;-65
2023/08/29 07:30:58;;;;;;;2.85;1.30;;;;;;;23.14;100.00;98062.13;5136724;28;20051;-62
2023/08/29 07:33:24;;;;;;;2.85;2.17;;;;;;;23.49;100.00;98068.69;5136423;28;20051;-63
2023/08/29 07:35:50;;;;;;;1.40;1.30;;;;;;;23.73;100.00;98128.69;5136597;28;20138;-57
2023/08/29 07:39:32;;;;;;;5.35;1.90;;;;;;;24.97;100.00;98207.25;5198537;27;20671;-54
2023/08/29 07:41:58;;;;;;;1.67;1.58;;;;;;;24.97;100.00;98264.09;5196181;27;20137;-62
2023/08/29 07:44:24;;;;;;;7.22;1.27;;;;;;;25.13;100.00;98265.66;5196499;27;20109;-59
2023/08/29 07:46:50;;;;;;;4.20;1.70;;;;;;;25.27;100.00;98287.28;5194705;27;20065;-59
2023/08/29 07:49:20;;;;;;;3.83;1.90;;;;;;;26.64;100.00;98333.56;5195804;27;20082;-58
2023/08/29 07:51:46;;;;;;;4.97;2.55;;;;;;;26.31;100.00;98359.19;5196599;27;20416;-59
2023/08/29 07:54:12;;;;;;;4.18;1.92;;;;;;;25.90;100.00;98337.47;5193520;27;20218;-60
2023/08/29 07:56:38;;;;;;;4.32;1.80;;;;;;;26.84;100.00;98355.25;5196296;27;20128;-63
2023/08/29 07:59:04;;;;;;;5.43;1.58;;;;;;;26.54;100.00;98372.28;5195924;27;20056;-63
2023/08/29 08:01:30;;;;;;;3.53;1.65;;;;;;;25.70;100.00;98346.63;5196155;27;20319;-64
2023/08/29 08:03:56;;;;;;;5.68;1.98;;;;;;;26.02;100.00;98305.50;5195907;27;20145;-65
2023/08/29 08:06:22;;;;;;;1.63;1.52;;;;;;;25.95;100.00;98330.38;5196410;27;20081;-60
2023/08/29 08:08:48;;;;;;;4.43;2.10;;;;;;;24.96;100.00;98289.78;5195666;27;20091;-58
2023/08/29 08:11:14;;;;;;;3.33;2.00;;;;;;;25.41;100.00;98262.50;5196115;27;20142;-59
2023/08/29 08:13:40;;;;;;;3.60;1.90;;;;;;;25.99;100.00;98280.41;5195686;27;20411;-60
2023/08/29 08:16:06;;;;;;;2.25;1.75;;;;;;;25.71;100.00;98336.16;5195622;27;20144;-58
2023/08/29 08:18:32;;;;;;;2.10;1.50;;;;;;;25.65;100.00;98299.56;5195852;27;20149;-62
2023/08/29 08:20:58;;;;;;;6.25;1.52;;;;;;;26.85;100.00;98315.34;5195843;27;20136;-64
2023/08/29 08:23:24;;;;;;;2.65;2.10;;;;;;;26.48;100.00;98340.53;5195980;27;20050;-63
2023/08/29 08:25:50;;;;;;;4.03;2.00;;;;;;;25.78;100.00;98316.84;5195540;27;20050;-62
2023/08/29 08:28:16;;;;;;;2.65;1.60;;;;;;;24.96;100.00;98306.63;5195615;27;20061;-63
2023/08/29 08:30:42;;;;;;;4.53;1.98;;;;;;;25.18;100.00;98309.06;5195381;27;20053;-61
2023/08/29 08:36:11;;;;;;;2.05;1.75;;;;;;;26.97;100.00;98335.94;5195489;27;20109;-56
2023/08/29 08:38:37;;;;;;;3.00;1.60;;;;;;;26.67;100.00;98361.44;5195360;27;20042;-55
2023/08/29 08:41:04;;;;;;;3.30;1.67;;;;;;;27.10;100.00;98370.06;5195279;27;20077;-53
2023/08/29 08:43:31;;;;;;;5.30;1.38;;;;;;;27.26;100.00;98368.72;5195354;27;20050;-62
2023/08/29 08:45:59;;;;;;;4.95;1.60;;;;;;;27.36;100.00;98366.50;5195572;27;20042;-59
2023/08/29 08:48:25;;;;;;;2.67;1.70;;;;;;;27.56;100.00;98366.41;5195194;27;20142;-63
2023/08/29 08:50:51;;;;;;;3.83;1.77;;;;;;;28.87;100.00;98400.44;5181636;27;20427;-63
2023/08/29 08:53:19;;;;;;;3.88;1.80;;;;;;;28.89;100.00;98383.78;5181161;27;20159;-60
2023/08/29 08:55:45;;;;;;;4.80;1.85;;;;;;;27.99;100.00;98369.28;5181361;27;20053;-55
2023/08/29 08:58:12;;;;;;;2.85;2.10;;;;;;;26.75;100.00;98342.88;5180859;27;20467;-62
2023/08/29 09:00:38;;;;;;;6.10;2.08;;;;;;;27.44;100.00;98343.00;5181266;27;20129;-62
2023/08/29 09:03:05;;;;;;;3.40;1.92;;;;;;;27.46;100.00;98345.34;5181179;27;20050;-62
2023/08/29 09:05:30;;;;;;;2.90;1.77;;;;;;;27.17;100.00;98332.31;5181199;27;20050;-63
2023/08/29 09:07:56;;;;;;;2.10;1.90;;;;;;;27.56;100.00;98346.69;5181235;27;20147;-61
2023/08/29 09:10:23;;;;;;;4.65;1.73;;;;;;;26.43;100.00;98333.56;5181205;27;20046;-60
2023/08/29 09:12:50;;;;;;;2.00;1.73;;;;;;;27.30;100.00;98343.16;5180838;27;20149;-57
2023/08/29 09:15:17;;;;;;;2.42;1.83;;;;;;;27.72;100.00;98358.56;5181064;27;20042;-62
2023/08/29 09:17:47;;;;;;;1.92;1.83;;;;;;;26.92;100.00;98351.47;5181481;27;20050;-62
2023/08/29 09:20:14;;;;;;;2.97;1.83;;;;;;;27.26;100.00;98351.84;5181013;27;20069;-64
2023/08/29 09:22:42;;;;;;;4.10;2.10;;;;;;;27.02;100.00;98331.63;5181307;27;20372;-60
2023/08/29 09:25:09;;;;;;;3.50;2.00;;;;;;;28.38;100.00;98358.19;5181028;27;20050;-58
2023/08/29 09:27:39;;;;;;;6.53;1.80;;;;;;;28.74;100.00;98358.59;5181188;27;20133;-55
2023/08/29 09:30:10;;;;;;;2.97;1.77;;;;;;;29.07;98.56;98371.25;5180641;27;20057;-59
2023/08/29 09:32:37;;;;;;;1.73;1.63;;;;;;;28.21;100.00;98368.63;5180582;27;20050;-61
2023/08/29 09:35:05;;;;;;;4.40;2.08;;;;;;;27.76;100.00;98359.09;5180595;27;20057;-56
2023/08/29 09:37:32;;;;;;;5.90;1.88;;;;;;;28.19;100.00;98368.38;5180415;27;20384;-59
2023/08/29 09:39:59;;;;;;;4.97;1.90;;;;;;;26.79;100.00;98350.31;5180539;27;20136;-60
2023/08/29 09:42:24;;;;;;;3.08;1.88;;;;;;;26.91;100.00;98349.94;5180273;27;20559;-60
2023/08/29 09:44:50;;;;;;;2.53;1.90;;;;;;;27.08;100.00;98352.91;5180595;27;20095;-59
2023/08/29 09:47:23;;;;;;;2.90;1.88;;;;;;;27.89;100.00;98351.81;5180331;27;20187;-61
2023/08/29 09:49:49;;;;;;;3.42;1.60;;;;;;;28.28;100.00;98350.44;5180642;27;20395;-62
2023/08/29 09:52:16;;;;;;;2.25;1.58;;;;;;;27.39;100.00;98340.94;5180225;27;20114;-60
2023/08/29 09:54:45;;;;;;;1.35;1.25;;;;;;;27.85;100.00;98342.81;5180620;27;20057;-56
2023/08/29 09:57:13;;;;;;;3.60;1.50;;;;;;;27.29;100.00;98342.41;5180082;27;20054;-59
2023/08/29 09:59:42;;;;;;;5.32;1.65;;;;;;;28.59;100.00;98341.91;5180259;27;20072;-63
2023/08/29 10:02:11;;;;;;;5.07;1.50;;;;;;;27.87;100.00;98356.41;5179281;27;20050;-61
2023/08/29 10:04:43;;;;;;;3.42;1.40;;;;;;;28.58;100.00;98348.03;5180154;27;20046;-63
2023/08/29 10:07:13;;;;;;;1.60;1.50;;;;;;;28.33;100.00;98344.09;5180395;27;20050;-57
2023/08/29 10:09:40;;;;;;;1.90;1.70;;;;;;;28.38;100.00;98348.97;5179650;27;20136;-60
2023/08/29 10:12:07;;;;;;;4.40;1.52;;;;;;;28.44;100.00;98344.16;5180141;27;20074;-63
2023/08/29 10:14:34;;;;;;;5.57;1.63;;;;;;;28.47;100.00;98353.66;5179925;27;20096;-62
2023/08/29 10:17:01;;;;;;;5.10;1.50;;;;;;;28.42;100.00;98334.66;5180188;27;20046;-59
2023/08/29 10:19:29;;;;;;;1.88;1.58;;;;;;;27.82;100.00;98348.66;5179575;27;20054;-56
2023/08/29 10:21:56;;;;;;;4.97;1.80;;;;;;;28.17;100.00;98333.50;5179932;27;20056;-59
2023/08/29 10:24:22;;;;;;;3.25;1.70;;;;;;;29.03;100.00;98331.25;5180103;27;20046;-54
2023/08/29 10:26:49;;;;;;;2.20;1.60;;;;;;;28.29;100.00;98310.50;5179825;27;20133;-61
2023/08/29 10:29:17;;;;;;;6.32;1.80;;;;;;;28.09;100.00;98316.28;5179786;27;20479;-57
2023/08/29 10:31:44;;;;;;;2.97;1.70;;;;;;;28.12;100.00;98290.72;5179567;27;20054;-57
2023/08/29 10:34:13;;;;;;;3.05;1.92;;;;;;;28.13;100.00;98295.06;5179889;27;20046;-62
2023/08/29 10:36:40;;;;;;;2.20;1.77;;;;;;;27.94;100.00;98287.56;5179503;27;20054;-60
2023/08/29 10:39:09;;;;;;;5.65;1.80;;;;;;;27.41;100.00;98281.31;5179810;27;20065;-56
2023/08/29 10:41:43;;;;;;;3.53;2.00;;;;;;;27.39;100.00;98279.03;5179555;27;20192;-58
2023/08/29 10:44:39;;;;;;;3.67;1.70;;;;;;;26.92;100.00;98255.84;5179779;27;20057;-59
2023/08/29 10:47:19;;;;;;;4.40;1.90;;;;;;;27.49;100.00;98273.97;5179496;27;20046;-60
2023/08/29 10:49:45;;;;;;;6.35;2.13;;;;;;;27.51;100.00;98282.66;5179322;27;20046;-63
2023/08/29 10:52:13;;;;;;;2.95;1.75;;;;;;;27.38;100.00;98268.25;5179576;27;20300;-59
2023/08/29 10:54:40;;;;;;;4.28;1.80;;;;;;;27.59;100.00;98258.44;5179266;27;20073;-59
2023/08/29 10:57:27;;;;;;;4.95;1.92;;;;;;;28.36;100.00;98276.19;5179364;27;20046;-63
2023/08/29 10:59:54;;;;;;;2.35;1.95;;;;;;;28.84;100.00;98277.31;5178864;27;20056;-55
2023/08/29 11:02:26;;;;;;;12.32;10.55;;;;;;;28.41;100.00;98282.38;5179329;27;20050;-59
2023/08/29 11:05:08;;;;;;;4.85;2.00;;;;;;;28.67;100.00;98270.91;5179250;27;20106;-55
2023/08/29 11:07:34;;;;;;;4.63;1.92;;;;;;;27.84;100.00;98259.59;5179000;27;20061;-59
2023/08/29 11:10:14;;;;;;;3.88;1.90;;;;;;;27.61;100.00;98252.28;5179303;27;20058;-55
2023/08/29 11:13:06;;;;;;;3.47;1.85;;;;;;;27.80;100.00;98247.81;5178723;27;20141;-57
2023/08/29 11:16:09;;;;;;;9.18;2.00;;;;;;;27.93;100.00;98250.16;5179244;27;20050;-58
2023/08/29 11:18:35;;;;;;;5.32;2.50;;;;;;;27.64;100.00;98242.81;5179052;27;20077;-59
2023/08/29 11:21:08;;;;;;;5.80;2.30;;;;;;;27.72;100.00;98249.50;5178899;27;20145;-60
2023/08/29 11:23:38;;;;;;;6.63;1.77;;;;;;;27.64;100.00;98231.56;5178986;27;20141;-58
2023/08/29 11:26:05;;;;;;;4.00;2.20;;;;;;;27.17;100.00;98250.72;5178458;27;20046;-61
2023/08/29 11:28:32;;;;;;;3.85;2.20;;;;;;;27.32;100.00;98237.25;5179024;27;20065;-61
2023/08/29 11:30:59;;;;;;;3.17;2.05;;;;;;;27.05;100.00;98230.13;5178545;27;20050;-59